sensor_id;sensor_type;location;lat;lon;timestamp;pressure;altitude;pressure_sealevel;temperature;humidity
13241;BME280;6687;47.790;7.322;2023-01-27T06:12:05;99220.09;;;0.71;85.92
13241;BME280;6687;47.790;7.322;2023-01-27T06:14:31;99229.78;;;0.78;85.18
13241;BME280;6687;47.790;7.322;2023-01-27T06:16:58;99229.50;;;0.72;84.78
13241;BME280;6687;47.790;7.322;2023-01-27T06:19:25;99226.69;;;0.66;84.49
13241;BME280;6687;47.790;7.322;2023-01-27T06:21:52;99239.47;;;0.67;84.66
13241;BME280;6687;47.790;7.322;2023-01-27T06:24:18;99235.16;;;0.84;84.19
13241;BME280;6687;47.790;7.322;2023-01-27T06:26:45;99242.38;;;0.75;84.12
13241;BME280;6687;47.790;7.322;2023-01-27T06:29:13;99249.88;;;0.34;85.35
13241;BME280;6687;47.790;7.322;2023-01-27T06:31:40;99243.47;;;0.43;85.80
13241;BME280;6687;47.790;7.322;2023-01-27T06:34:07;99244.88;;;0.55;86.29
13241;BME280;6687;47.790;7.322;2023-01-27T06:36:33;99251.16;;;0.62;87.08
13241;BME280;6687;47.790;7.322;2023-01-27T06:39:01;99238.50;;;0.28;87.39
13241;BME280;6687;47.790;7.322;2023-01-27T06:41:28;99245.81;;;0.38;87.48
13241;BME280;6687;47.790;7.322;2023-01-27T06:43:54;99248.97;;;0.70;87.78
13241;BME280;6687;47.790;7.322;2023-01-27T06:46:23;99251.59;;;0.53;86.86
13241;BME280;6687;47.790;7.322;2023-01-27T06:48:49;99254.66;;;0.46;86.79
13241;BME280;6687;47.790;7.322;2023-01-27T06:51:16;99255.66;;;0.68;85.77
13241;BME280;6687;47.790;7.322;2023-01-27T06:53:43;99258.88;;;0.46;86.07
13241;BME280;6687;47.790;7.322;2023-01-27T06:56:10;99264.34;;;0.53;86.47
13241;BME280;6687;47.790;7.322;2023-01-27T06:58:36;99262.16;;;0.43;85.25
13241;BME280;6687;47.790;7.322;2023-01-27T07:01:04;99266.59;;;0.47;84.78
13241;BME280;6687;47.790;7.322;2023-01-27T07:03:32;99266.41;;;0.43;85.14
13241;BME280;6687;47.790;7.322;2023-01-27T07:05:59;99273.72;;;0.72;84.34
13241;BME280;6687;47.790;7.322;2023-01-27T07:08:26;99260.44;;;0.42;85.47
13241;BME280;6687;47.790;7.322;2023-01-27T07:10:52;99262.50;;;0.69;85.35
13241;BME280;6687;47.790;7.322;2023-01-27T07:13:19;99267.03;;;0.56;85.17
13241;BME280;6687;47.790;7.322;2023-01-27T07:15:46;99271.19;;;0.54;85.92
13241;BME280;6687;47.790;7.322;2023-01-27T07:18:13;99270.53;;;0.41;85.92
13241;BME280;6687;47.790;7.322;2023-01-27T07:20:42;99270.22;;;0.70;85.32
13241;BME280;6687;47.790;7.322;2023-01-27T07:23:08;99270.53;;;0.58;85.08
13241;BME280;6687;47.790;7.322;2023-01-27T07:25:36;99277.66;;;0.30;86.28
13241;BME280;6687;47.790;7.322;2023-01-27T07:28:03;99283.13;;;0.19;86.38
13241;BME280;6687;47.790;7.322;2023-01-27T07:30:31;99283.88;;;0.90;85.42
13241;BME280;6687;47.790;7.322;2023-01-27T07:33:02;99284.66;;;0.89;85.34
13241;BME280;6687;47.790;7.322;2023-01-27T07:35:29;99279.56;;;0.70;85.01
13241;BME280;6687;47.790;7.322;2023-01-27T07:37:57;99284.72;;;0.53;85.50
13241;BME280;6687;47.790;7.322;2023-01-27T07:40:24;99284.53;;;0.49;85.69
13241;BME280;6687;47.790;7.322;2023-01-27T07:42:51;99280.59;;;0.37;85.59
13241;BME280;6687;47.790;7.322;2023-01-27T07:45:18;99282.84;;;0.49;85.11
13241;BME280;6687;47.790;7.322;2023-01-27T07:47:44;99291.38;;;0.68;84.40
13241;BME280;6687;47.790;7.322;2023-01-27T07:50:11;99294.59;;;0.83;84.29
13241;BME280;6687;47.790;7.322;2023-01-27T07:52:38;99290.94;;;0.58;83.68
13241;BME280;6687;47.790;7.322;2023-01-27T07:55:07;99294.69;;;0.67;84.04
13241;BME280;6687;47.790;7.322;2023-01-27T07:57:34;99298.69;;;0.62;83.83
13241;BME280;6687;47.790;7.322;2023-01-27T08:00:02;99304.34;;;0.36;83.68
13241;BME280;6687;47.790;7.322;2023-01-27T08:02:30;99301.84;;;0.74;84.75
13241;BME280;6687;47.790;7.322;2023-01-27T08:04:56;99303.47;;;0.36;83.95
13241;BME280;6687;47.790;7.322;2023-01-27T08:07:23;99306.34;;;0.26;84.46
13241;BME280;6687;47.790;7.322;2023-01-27T08:09:50;99301.50;;;0.66;83.46
13241;BME280;6687;47.790;7.322;2023-01-27T08:12:20;99302.06;;;0.61;83.26
13241;BME280;6687;47.790;7.322;2023-01-27T08:14:47;99303.00;;;0.63;84.54
13241;BME280;6687;47.790;7.322;2023-01-27T08:17:13;99305.47;;;0.61;84.58
13241;BME280;6687;47.790;7.322;2023-01-27T08:19:40;99312.75;;;0.71;83.78
13241;BME280;6687;47.790;7.322;2023-01-27T08:22:07;99320.66;;;0.40;83.86
13241;BME280;6687;47.790;7.322;2023-01-27T08:24:34;99310.72;;;0.82;83.37
13241;BME280;6687;47.790;7.322;2023-01-27T08:27:01;99311.75;;;0.68;82.84
13241;BME280;6687;47.790;7.322;2023-01-27T08:29:29;99313.03;;;0.24;84.17
13241;BME280;6687;47.790;7.322;2023-01-27T08:31:57;99308.03;;;0.61;83.55
13241;BME280;6687;47.790;7.322;2023-01-27T08:34:24;99317.00;;;0.53;83.54
13241;BME280;6687;47.790;7.322;2023-01-27T08:36:51;99322.88;;;0.88;83.31
13241;BME280;6687;47.790;7.322;2023-01-27T08:39:18;99324.16;;;0.97;83.48
13241;BME280;6687;47.790;7.322;2023-01-27T08:41:44;99331.91;;;0.27;84.00
13241;BME280;6687;47.790;7.322;2023-01-27T08:44:12;99326.00;;;0.10;84.38
13241;BME280;6687;47.790;7.322;2023-01-27T08:46:40;99332.13;;;0.32;84.93
13241;BME280;6687;47.790;7.322;2023-01-27T08:49:07;99322.81;;;0.68;84.56
13241;BME280;6687;47.790;7.322;2023-01-27T08:51:33;99337.03;;;0.45;83.75
13241;BME280;6687;47.790;7.322;2023-01-27T08:54:00;99334.75;;;0.51;83.87
13241;BME280;6687;47.790;7.322;2023-01-27T08:56:27;99340.28;;;0.25;84.30
13241;BME280;6687;47.790;7.322;2023-01-27T08:58:55;99333.56;;;0.98;84.27
13241;BME280;6687;47.790;7.322;2023-01-27T09:01:21;99340.88;;;0.37;84.61
13241;BME280;6687;47.790;7.322;2023-01-27T09:03:50;99343.22;;;0.32;84.98
13241;BME280;6687;47.790;7.322;2023-01-27T09:06:18;99347.31;;;0.65;84.86
13241;BME280;6687;47.790;7.322;2023-01-27T09:08:46;99349.94;;;0.48;84.44
13241;BME280;6687;47.790;7.322;2023-01-27T09:11:33;99351.25;;;0.76;83.60
13241;BME280;6687;47.790;7.322;2023-01-27T09:14:00;99357.72;;;0.51;83.50
13241;BME280;6687;47.790;7.322;2023-01-27T09:16:26;99355.97;;;0.50;83.87
13241;BME280;6687;47.790;7.322;2023-01-27T09:18:55;99362.75;;;0.50;83.89
13241;BME280;6687;47.790;7.322;2023-01-27T09:21:22;99366.53;;;0.40;85.06
13241;BME280;6687;47.790;7.322;2023-01-27T09:23:49;99364.50;;;0.51;84.26
13241;BME280;6687;47.790;7.322;2023-01-27T09:26:16;99355.31;;;0.54;84.54
13241;BME280;6687;47.790;7.322;2023-01-27T09:28:43;99351.66;;;0.85;84.14
13241;BME280;6687;47.790;7.322;2023-01-27T09:31:10;99371.59;;;0.22;84.72
13241;BME280;6687;47.790;7.322;2023-01-27T09:33:37;99362.16;;;0.55;84.65
13241;BME280;6687;47.790;7.322;2023-01-27T09:36:07;99367.19;;;0.36;84.75
13241;BME280;6687;47.790;7.322;2023-01-27T09:38:39;99370.53;;;0.71;85.22
13241;BME280;6687;47.790;7.322;2023-01-27T09:41:25;99361.81;;;0.66;84.60
13241;BME280;6687;47.790;7.322;2023-01-27T09:44:08;99359.25;;;0.66;86.33
13241;BME280;6687;47.790;7.322;2023-01-27T09:46:57;99361.44;;;0.76;83.85
13241;BME280;6687;47.790;7.322;2023-01-27T09:49:40;99358.94;;;0.59;84.77
13241;BME280;6687;47.790;7.322;2023-01-27T09:52:31;99369.59;;;0.51;84.90
13241;BME280;6687;47.790;7.322;2023-01-27T09:55:06;99362.75;;;0.68;85.39
13241;BME280;6687;47.790;7.322;2023-01-27T09:57:41;99370.16;;;0.45;84.50
13241;BME280;6687;47.790;7.322;2023-01-27T10:00:22;99363.03;;;0.74;83.27
13241;BME280;6687;47.790;7.322;2023-01-27T10:03:11;99366.09;;;0.67;83.53
13241;BME280;6687;47.790;7.322;2023-01-27T10:08:42;99372.00;;;0.66;83.18
13241;BME280;6687;47.790;7.322;2023-01-27T10:11:17;99375.13;;;0.42;83.67
13241;BME280;6687;47.790;7.322;2023-01-27T10:13:54;99376.72;;;0.40;83.31
13241;BME280;6687;47.790;7.322;2023-01-27T10:16:40;99375.44;;;0.84;83.14
13241;BME280;6687;47.790;7.322;2023-01-27T10:19:29;99365.81;;;0.61;82.82
13241;BME280;6687;47.790;7.322;2023-01-27T10:22:09;99365.88;;;0.62;83.45
13241;BME280;6687;47.790;7.322;2023-01-27T10:24:47;99375.13;;;0.42;83.37
13241;BME280;6687;47.790;7.322;2023-01-27T10:27:22;99364.97;;;0.97;84.34
13241;BME280;6687;47.790;7.322;2023-01-27T10:29:55;99368.66;;;0.67;82.92
13241;BME280;6687;47.790;7.322;2023-01-27T10:32:25;99372.31;;;0.72;82.93
13241;BME280;6687;47.790;7.322;2023-01-27T10:35:02;99368.63;;;0.85;83.88
13241;BME280;6687;47.790;7.322;2023-01-27T10:37:35;99358.22;;;0.98;82.99
13241;BME280;6687;47.790;7.322;2023-01-27T10:40:15;99358.81;;;0.74;82.57
13241;BME280;6687;47.790;7.322;2023-01-27T10:42:49;99365.22;;;0.66;81.95
13241;BME280;6687;47.790;7.322;2023-01-27T10:45:26;99363.63;;;0.86;81.89
13241;BME280;6687;47.790;7.322;2023-01-27T10:48:17;99354.88;;;0.63;82.18
13241;BME280;6687;47.790;7.322;2023-01-27T10:50:50;99356.75;;;0.49;82.14
13241;BME280;6687;47.790;7.322;2023-01-27T10:53:26;99362.28;;;0.94;81.46
13241;BME280;6687;47.790;7.322;2023-01-27T10:56:00;99360.91;;;0.83;81.78
13241;BME280;6687;47.790;7.322;2023-01-27T10:58:38;99365.34;;;0.51;82.52
13241;BME280;6687;47.790;7.322;2023-01-27T11:01:10;99358.25;;;0.62;82.06
13241;BME280;6687;47.790;7.322;2023-01-27T11:03:41;99351.09;;;0.73;82.32
13241;BME280;6687;47.790;7.322;2023-01-27T11:06:13;99347.66;;;0.54;82.34
13241;BME280;6687;47.790;7.322;2023-01-27T11:08:45;99344.53;;;0.78;81.97
13241;BME280;6687;47.790;7.322;2023-01-27T11:11:14;99343.53;;;0.56;82.06
13241;BME280;6687;47.790;7.322;2023-01-27T11:14:08;99344.09;;;0.69;82.02
13241;BME280;6687;47.790;7.322;2023-01-27T11:16:36;99341.44;;;0.85;81.40
13241;BME280;6687;47.790;7.322;2023-01-27T11:19:15;99335.69;;;0.89;81.95
13241;BME280;6687;47.790;7.322;2023-01-27T11:21:44;99339.16;;;0.72;81.85
13241;BME280;6687;47.790;7.322;2023-01-27T11:24:18;99333.09;;;0.70;81.91
13241;BME280;6687;47.790;7.322;2023-01-27T11:26:55;99335.13;;;0.59;81.91
13241;BME280;6687;47.790;7.322;2023-01-27T11:29:30;99335.66;;;0.70;80.96
13241;BME280;6687;47.790;7.322;2023-01-27T11:32:04;99320.63;;;0.76;81.44
13241;BME280;6687;47.790;7.322;2023-01-27T11:34:40;99330.13;;;1.16;81.30
13241;BME280;6687;47.790;7.322;2023-01-27T11:37:17;99319.56;;;1.08;80.63
13241;BME280;6687;47.790;7.322;2023-01-27T11:39:44;99311.13;;;0.91;82.24
13241;BME280;6687;47.790;7.322;2023-01-27T11:42:13;99306.06;;;1.30;81.66
13241;BME280;6687;47.790;7.322;2023-01-27T11:44:41;99318.41;;;1.02;80.89
13241;BME280;6687;47.790;7.322;2023-01-27T11:47:16;99295.38;;;1.00;81.00
13241;BME280;6687;47.790;7.322;2023-01-27T11:49:47;99288.06;;;1.08;81.44
13241;BME280;6687;47.790;7.322;2023-01-27T11:52:17;99289.13;;;0.75;81.34
13241;BME280;6687;47.790;7.322;2023-01-27T11:54:48;99289.69;;;1.06;80.54
13241;BME280;6687;47.790;7.322;2023-01-27T11:57:20;99302.25;;;0.83;81.36
13241;BME280;6687;47.790;7.322;2023-01-27T11:59:50;99300.00;;;1.09;81.13
13241;BME280;6687;47.790;7.322;2023-01-27T12:02:25;99317.03;;;0.90;80.11
13241;BME280;6687;47.790;7.322;2023-01-27T12:04:58;99315.47;;;0.74;80.36
13241;BME280;6687;47.790;7.322;2023-01-27T12:07:34;99328.47;;;0.98;80.02
13241;BME280;6687;47.790;7.322;2023-01-27T12:10:20;99334.63;;;0.84;80.19
13241;BME280;6687;47.790;7.322;2023-01-27T12:12:49;99335.50;;;0.67;80.45
13241;BME280;6687;47.790;7.322;2023-01-27T12:15:17;99329.22;;;0.78;80.25
13241;BME280;6687;47.790;7.322;2023-01-27T12:17:46;99329.06;;;0.75;79.24
13241;BME280;6687;47.790;7.322;2023-01-27T12:20:25;99333.69;;;0.64;79.23
13241;BME280;6687;47.790;7.322;2023-01-27T12:22:56;99331.84;;;0.79;79.48
13241;BME280;6687;47.790;7.322;2023-01-27T12:25:26;99326.31;;;0.70;79.59
13241;BME280;6687;47.790;7.322;2023-01-27T12:27:57;99330.41;;;0.67;80.01
13241;BME280;6687;47.790;7.322;2023-01-27T12:30:26;99309.91;;;1.21;80.67
13241;BME280;6687;47.790;7.322;2023-01-27T12:32:54;99313.94;;;0.78;79.32
13241;BME280;6687;47.790;7.322;2023-01-27T12:35:23;99317.72;;;0.86;80.14
13241;BME280;6687;47.790;7.322;2023-01-27T12:37:55;99315.38;;;0.73;79.28
13241;BME280;6687;47.790;7.322;2023-01-27T12:40:24;99312.75;;;0.71;80.05
13241;BME280;6687;47.790;7.322;2023-01-27T12:43:09;99321.00;;;1.03;81.08
13241;BME280;6687;47.790;7.322;2023-01-27T12:45:38;99311.38;;;1.15;79.90
13241;BME280;6687;47.790;7.322;2023-01-27T12:48:19;99304.13;;;0.87;79.27
13241;BME280;6687;47.790;7.322;2023-01-27T12:50:55;99301.66;;;0.89;79.34
13241;BME280;6687;47.790;7.322;2023-01-27T12:53:23;99298.09;;;0.85;79.33
13241;BME280;6687;47.790;7.322;2023-01-27T12:55:56;99300.78;;;0.88;79.19
13241;BME280;6687;47.790;7.322;2023-01-27T12:58:37;99296.53;;;1.26;78.93
13241;BME280;6687;47.790;7.322;2023-01-27T13:01:07;99286.84;;;1.38;78.46
13241;BME280;6687;47.790;7.322;2023-01-27T13:03:45;99288.22;;;1.50;78.51
13241;BME280;6687;47.790;7.322;2023-01-27T13:06:16;99276.59;;;0.98;78.51
13241;BME280;6687;47.790;7.322;2023-01-27T13:08:45;99278.72;;;1.08;79.10
13241;BME280;6687;47.790;7.322;2023-01-27T13:11:12;99278.84;;;1.11;78.60
13241;BME280;6687;47.790;7.322;2023-01-27T13:13:48;99273.81;;;0.93;78.43
13241;BME280;6687;47.790;7.322;2023-01-27T13:16:17;99280.13;;;0.82;78.52
13241;BME280;6687;47.790;7.322;2023-01-27T13:18:52;99271.69;;;1.42;78.81
13241;BME280;6687;47.790;7.322;2023-01-27T13:21:21;99270.25;;;1.09;78.27
13241;BME280;6687;47.790;7.322;2023-01-27T13:23:50;99278.53;;;1.43;78.05
13241;BME280;6687;47.790;7.322;2023-01-27T13:26:24;99284.59;;;1.06;78.03
13241;BME280;6687;47.790;7.322;2023-01-27T13:28:56;99298.34;;;1.29;77.92
13241;BME280;6687;47.790;7.322;2023-01-27T13:31:34;99300.56;;;1.21;77.82
13241;BME280;6687;47.790;7.322;2023-01-27T13:34:12;99299.75;;;1.22;78.19
13241;BME280;6687;47.790;7.322;2023-01-27T13:36:44;99301.34;;;1.01;78.05
13241;BME280;6687;47.790;7.322;2023-01-27T13:39:18;99301.50;;;1.23;77.53
13241;BME280;6687;47.790;7.322;2023-01-27T13:42:06;99298.56;;;1.33;76.78
13241;BME280;6687;47.790;7.322;2023-01-27T13:44:38;99294.91;;;1.09;77.36
13241;BME280;6687;47.790;7.322;2023-01-27T13:47:13;99303.94;;;1.20;77.05
13241;BME280;6687;47.790;7.322;2023-01-27T13:49:43;99302.06;;;1.35;77.34
13241;BME280;6687;47.790;7.322;2023-01-27T13:52:12;99300.75;;;1.45;77.09
13241;BME280;6687;47.790;7.322;2023-01-27T13:54:39;99293.25;;;1.29;76.98
13241;BME280;6687;47.790;7.322;2023-01-27T13:57:28;99289.28;;;1.35;76.98
13241;BME280;6687;47.790;7.322;2023-01-27T14:00:08;99298.00;;;1.41;76.97
13241;BME280;6687;47.790;7.322;2023-01-27T14:02:58;99304.38;;;1.50;76.54
13241;BME280;6687;47.790;7.322;2023-01-27T14:05:39;99300.75;;;1.45;76.43
13241;BME280;6687;47.790;7.322;2023-01-27T14:08:17;99303.94;;;1.39;76.64
13241;BME280;6687;47.790;7.322;2023-01-27T14:10:57;99297.25;;;2.03;77.55
13241;BME280;6687;47.790;7.322;2023-01-27T14:13:36;99310.88;;;1.63;75.79
13241;BME280;6687;47.790;7.322;2023-01-27T14:16:12;99316.81;;;1.62;76.36
13241;BME280;6687;47.790;7.322;2023-01-27T14:18:46;99314.78;;;1.74;76.23
13241;BME280;6687;47.790;7.322;2023-01-27T14:21:20;99318.28;;;1.76;75.84
13241;BME280;6687;47.790;7.322;2023-01-27T14:23:56;99313.88;;;1.93;78.15
13241;BME280;6687;47.790;7.322;2023-01-27T14:26:40;99314.78;;;1.74;76.06
13241;BME280;6687;47.790;7.322;2023-01-27T14:29:18;99315.47;;;1.51;75.67
13241;BME280;6687;47.790;7.322;2023-01-27T14:31:52;99319.38;;;1.62;75.06
13241;BME280;6687;47.790;7.322;2023-01-27T14:34:33;99322.59;;;1.77;74.69
13241;BME280;6687;47.790;7.322;2023-01-27T14:37:12;99323.75;;;1.26;74.97
13241;BME280;6687;47.790;7.322;2023-01-27T14:39:50;99322.69;;;1.81;74.74
13241;BME280;6687;47.790;7.322;2023-01-27T14:42:24;99326.63;;;1.53;74.99
13241;BME280;6687;47.790;7.322;2023-01-27T14:44:57;99338.34;;;1.48;75.47
13241;BME280;6687;47.790;7.322;2023-01-27T14:47:33;99336.84;;;1.72;75.05
13241;BME280;6687;47.790;7.322;2023-01-27T14:50:15;99323.97;;;1.90;74.65
13241;BME280;6687;47.790;7.322;2023-01-27T14:52:51;99336.09;;;2.15;75.93
13241;BME280;6687;47.790;7.322;2023-01-27T14:55:31;99335.38;;;1.77;75.19
13241;BME280;6687;47.790;7.322;2023-01-27T14:58:17;99339.13;;;1.86;77.12
13241;BME280;6687;47.790;7.322;2023-01-27T15:00:51;99342.88;;;1.74;74.37
13241;BME280;6687;47.790;7.322;2023-01-27T15:03:46;99346.84;;;1.87;74.31
13241;BME280;6687;47.790;7.322;2023-01-27T15:06:20;99353.44;;;1.63;75.02
13241;BME280;6687;47.790;7.322;2023-01-27T15:08:56;99339.22;;;1.89;75.32
13241;BME280;6687;47.790;7.322;2023-01-27T15:14:49;99349.06;;;1.60;75.28
13241;BME280;6687;47.790;7.322;2023-01-27T15:17:31;99349.41;;;1.68;75.95
13241;BME280;6687;47.790;7.322;2023-01-27T15:20:38;99347.03;;;1.72;75.27
13241;BME280;6687;47.790;7.322;2023-01-27T15:23:22;99356.06;;;1.45;75.98
13241;BME280;6687;47.790;7.322;2023-01-27T15:25:54;99352.41;;;1.59;75.05
13241;BME280;6687;47.790;7.322;2023-01-27T15:28:27;99357.69;;;1.82;75.25
13241;BME280;6687;47.790;7.322;2023-01-27T15:31:07;99351.88;;;1.86;74.57
13241;BME280;6687;47.790;7.322;2023-01-27T15:33:44;99365.53;;;1.86;75.18
13241;BME280;6687;47.790;7.322;2023-01-27T15:36:17;99357.16;;;1.69;75.05
13241;BME280;6687;47.790;7.322;2023-01-27T15:38:57;99351.03;;;1.46;75.66
13241;BME280;6687;47.790;7.322;2023-01-27T15:41:25;99362.72;;;1.61;76.63
13241;BME280;6687;47.790;7.322;2023-01-27T15:44:03;99361.66;;;1.55;75.68
13241;BME280;6687;47.790;7.322;2023-01-27T15:46:32;99354.84;;;1.56;75.87
13241;BME280;6687;47.790;7.322;2023-01-27T15:49:00;99358.19;;;1.16;76.15
13241;BME280;6687;47.790;7.322;2023-01-27T15:51:34;99361.56;;;1.34;75.77
13241;BME280;6687;47.790;7.322;2023-01-27T15:54:02;99355.75;;;1.19;77.03
13241;BME280;6687;47.790;7.322;2023-01-27T15:56:44;99349.88;;;1.39;78.54
13241;BME280;6687;47.790;7.322;2023-01-27T15:59:17;99350.94;;;1.64;76.58
13241;BME280;6687;47.790;7.322;2023-01-27T16:01:47;99354.16;;;1.21;77.00
13241;BME280;6687;47.790;7.322;2023-01-27T16:04:17;99349.44;;;1.11;77.44
13241;BME280;6687;47.790;7.322;2023-01-27T16:06:50;99360.06;;;1.20;77.54
13241;BME280;6687;47.790;7.322;2023-01-27T16:09:34;99355.38;;;1.49;77.17
13241;BME280;6687;47.790;7.322;2023-01-27T16:12:05;99358.81;;;1.30;78.17
13241;BME280;6687;47.790;7.322;2023-01-27T16:14:43;99359.19;;;1.39;77.18
13241;BME280;6687;47.790;7.322;2023-01-27T16:17:18;99363.59;;;1.42;77.81
13241;BME280;6687;47.790;7.322;2023-01-27T16:19:53;99361.16;;;1.45;77.94
13241;BME280;6687;47.790;7.322;2023-01-27T16:22:23;99364.81;;;1.50;78.85
13241;BME280;6687;47.790;7.322;2023-01-27T16:24:54;99377.22;;;1.05;78.41
13241;BME280;6687;47.790;7.322;2023-01-27T16:27:35;99391.75;;;1.06;79.44
13241;BME280;6687;47.790;7.322;2023-01-27T16:30:13;99395.94;;;1.05;79.80
13241;BME280;6687;47.790;7.322;2023-01-27T16:32:57;99394.47;;;1.28;79.46
13241;BME280;6687;47.790;7.322;2023-01-27T16:35:24;99389.13;;;1.04;79.45
13241;BME280;6687;47.790;7.322;2023-01-27T16:38:01;99392.75;;;0.91;80.75
13241;BME280;6687;47.790;7.322;2023-01-27T16:40:32;99395.53;;;1.14;79.79
13241;BME280;6687;47.790;7.322;2023-01-27T16:43:02;99392.88;;;1.12;80.53
13241;BME280;6687;47.790;7.322;2023-01-27T16:45:40;99405.28;;;1.05;80.55
13241;BME280;6687;47.790;7.322;2023-01-27T16:48:19;99396.53;;;1.17;80.08
13241;BME280;6687;47.790;7.322;2023-01-27T16:50:47;99400.59;;;1.32;80.17
13241;BME280;6687;47.790;7.322;2023-01-27T16:53:19;99403.53;;;1.41;80.28
13241;BME280;6687;47.790;7.322;2023-01-27T16:55:56;99406.00;;;1.20;79.95
13241;BME280;6687;47.790;7.322;2023-01-27T16:58:24;99415.03;;;0.95;80.86
13241;BME280;6687;47.790;7.322;2023-01-27T17:00:53;99424.25;;;1.10;80.21
13241;BME280;6687;47.790;7.322;2023-01-27T17:03:26;99421.75;;;0.93;80.99
13241;BME280;6687;47.790;7.322;2023-01-27T17:05:56;99420.16;;;1.31;81.52
13241;BME280;6687;47.790;7.322;2023-01-27T17:08:27;99429.34;;;1.10;81.68
13241;BME280;6687;47.790;7.322;2023-01-27T17:11:05;99427.47;;;1.06;80.57
13241;BME280;6687;47.790;7.322;2023-01-27T17:13:35;99431.94;;;1.11;80.74
13241;BME280;6687;47.790;7.322;2023-01-27T17:16:11;99432.19;;;1.16;81.36
13241;BME280;6687;47.790;7.322;2023-01-27T17:18:42;99440.34;;;1.09;80.64
13241;BME280;6687;47.790;7.322;2023-01-27T17:21:09;99435.75;;;1.37;80.65
13241;BME280;6687;47.790;7.322;2023-01-27T17:23:37;99436.75;;;1.23;81.01
13241;BME280;6687;47.790;7.322;2023-01-27T17:26:06;99439.97;;;1.19;80.76
13241;BME280;6687;47.790;7.322;2023-01-27T17:28:37;99447.13;;;0.90;81.84
13241;BME280;6687;47.790;7.322;2023-01-27T17:31:05;99440.13;;;1.04;81.29
13241;BME280;6687;47.790;7.322;2023-01-27T17:33:33;99432.84;;;1.12;80.80
13241;BME280;6687;47.790;7.322;2023-01-27T17:36:06;99444.94;;;0.98;81.84
13241;BME280;6687;47.790;7.322;2023-01-27T17:38:40;99437.69;;;1.25;81.14
13241;BME280;6687;47.790;7.322;2023-01-27T17:41:23;99438.66;;;1.27;81.94
13241;BME280;6687;47.790;7.322;2023-01-27T17:43:51;99442.31;;;0.96;81.98
13241;BME280;6687;47.790;7.322;2023-01-27T17:46:21;99446.41;;;1.11;81.09
13241;BME280;6687;47.790;7.322;2023-01-27T17:48:51;99444.66;;;1.28;81.19
13241;BME280;6687;47.790;7.322;2023-01-27T17:51:20;99443.75;;;0.91;81.76
13241;BME280;6687;47.790;7.322;2023-01-27T17:53:50;99453.25;;;1.12;81.91
13241;BME280;6687;47.790;7.322;2023-01-27T17:56:20;99457.19;;;1.23;81.82
13241;BME280;6687;47.790;7.322;2023-01-27T17:58:50;99455.44;;;1.22;81.57
13241;BME280;6687;47.790;7.322;2023-01-27T18:01:19;99456.59;;;1.11;81.88
13241;BME280;6687;47.790;7.322;2023-01-27T18:03:48;99458.50;;;1.15;81.95
13241;BME280;6687;47.790;7.322;2023-01-27T18:06:18;99457.78;;;0.99;81.81
13241;BME280;6687;47.790;7.322;2023-01-27T18:08:52;99462.22;;;1.04;81.99
13241;BME280;6687;47.790;7.322;2023-01-27T18:11:23;99455.00;;;1.13;82.55
13241;BME280;6687;47.790;7.322;2023-01-27T18:13:56;99463.84;;;1.02;81.74
13241;BME280;6687;47.790;7.322;2023-01-27T18:16:23;99478.41;;;1.04;81.96
13241;BME280;6687;47.790;7.322;2023-01-27T18:18:50;99471.81;;;0.91;82.30
13241;BME280;6687;47.790;7.322;2023-01-27T18:21:21;99480.38;;;1.10;82.04
13241;BME280;6687;47.790;7.322;2023-01-27T18:23:51;99481.25;;;0.92;82.31
13241;BME280;6687;47.790;7.322;2023-01-27T18:26:22;99476.50;;;1.18;82.43
13241;BME280;6687;47.790;7.322;2023-01-27T18:28:52;99474.19;;;1.05;81.94
13241;BME280;6687;47.790;7.322;2023-01-27T18:31:22;99484.88;;;0.97;82.48
13241;BME280;6687;47.790;7.322;2023-01-27T18:33:58;99483.06;;;0.95;82.81
13241;BME280;6687;47.790;7.322;2023-01-27T18:36:29;99480.09;;;1.04;82.30
13241;BME280;6687;47.790;7.322;2023-01-27T18:39:00;99484.16;;;1.00;82.45
13241;BME280;6687;47.790;7.322;2023-01-27T18:41:29;99494.66;;;1.24;82.14
13241;BME280;6687;47.790;7.322;2023-01-27T18:43:58;99495.38;;;0.86;82.74
13241;BME280;6687;47.790;7.322;2023-01-27T18:46:25;99489.94;;;1.32;82.34
13241;BME280;6687;47.790;7.322;2023-01-27T18:48:52;99493.53;;;0.83;82.55
13241;BME280;6687;47.790;7.322;2023-01-27T18:51:20;99490.78;;;0.78;83.14
13241;BME280;6687;47.790;7.322;2023-01-27T18:53:47;99494.66;;;0.88;82.55
13241;BME280;6687;47.790;7.322;2023-01-27T18:56:15;99500.84;;;0.93;82.36
13241;BME280;6687;47.790;7.322;2023-01-27T18:58:42;99499.59;;;0.85;82.39
13241;BME280;6687;47.790;7.322;2023-01-27T19:01:14;99501.47;;;0.89;82.34
13241;BME280;6687;47.790;7.322;2023-01-27T19:03:45;99505.25;;;1.14;82.02
13241;BME280;6687;47.790;7.322;2023-01-27T19:06:13;99510.25;;;0.94;82.36
13241;BME280;6687;47.790;7.322;2023-01-27T19:08:41;99508.66;;;1.14;81.97
13241;BME280;6687;47.790;7.322;2023-01-27T19:11:09;99504.00;;;1.24;82.44
13241;BME280;6687;47.790;7.322;2023-01-27T19:13:40;99506.00;;;0.95;81.63
13241;BME280;6687;47.790;7.322;2023-01-27T19:16:09;99510.03;;;0.90;82.64
13241;BME280;6687;47.790;7.322;2023-01-27T19:18:39;99508.72;;;0.98;81.87
13241;BME280;6687;47.790;7.322;2023-01-27T19:21:08;99515.78;;;0.86;82.22
13241;BME280;6687;47.790;7.322;2023-01-27T19:23:36;99512.59;;;1.08;82.40
13241;BME280;6687;47.790;7.322;2023-01-27T19:26:04;99515.16;;;0.73;82.57
13241;BME280;6687;47.790;7.322;2023-01-27T19:28:37;99517.69;;;0.90;82.78
13241;BME280;6687;47.790;7.322;2023-01-27T19:31:05;99517.97;;;0.78;82.97
13241;BME280;6687;47.790;7.322;2023-01-27T19:33:32;99517.34;;;1.18;82.32
13241;BME280;6687;47.790;7.322;2023-01-27T19:36:12;99519.22;;;0.86;83.03
13241;BME280;6687;47.790;7.322;2023-01-27T19:38:40;99513.91;;;0.99;82.70
13241;BME280;6687;47.790;7.322;2023-01-27T19:41:07;99516.00;;;0.90;82.71
13241;BME280;6687;47.790;7.322;2023-01-27T19:43:34;99512.84;;;0.78;82.79
13241;BME280;6687;47.790;7.322;2023-01-27T19:46:00;99519.59;;;0.94;83.16
13241;BME280;6687;47.790;7.322;2023-01-27T19:48:28;99516.66;;;0.86;83.31
13241;BME280;6687;47.790;7.322;2023-01-27T19:50:55;99519.44;;;0.91;83.39
13241;BME280;6687;47.790;7.322;2023-01-27T19:53:22;99517.34;;;0.66;83.78
13241;BME280;6687;47.790;7.322;2023-01-27T19:55:49;99519.31;;;1.06;82.93
13241;BME280;6687;47.790;7.322;2023-01-27T19:58:19;99516.50;;;0.83;82.79
13241;BME280;6687;47.790;7.322;2023-01-27T20:00:47;99526.03;;;1.04;83.33
13241;BME280;6687;47.790;7.322;2023-01-27T20:03:14;99531.91;;;1.03;82.70
13241;BME280;6687;47.790;7.322;2023-01-27T20:05:42;99527.41;;;1.15;82.46